createdAt,value
2023-06-09T00:04:58.701Z,12.1
2023-06-09T00:09:58.411Z,12.1
2023-06-09T00:14:58.200Z,12.1
2023-06-09T00:19:57.921Z,12.0
2023-06-09T00:24:57.670Z,11.9
2023-06-09T00:29:57.349Z,11.9
2023-06-09T00:34:57.130Z,11.8
2023-06-09T00:39:56.837Z,11.8
2023-06-09T00:44:56.576Z,11.7
2023-06-09T00:49:56.315Z,11.6
2023-06-09T00:54:56.011Z,11.6
2023-06-09T00:59:55.710Z,11.5
2023-06-09T01:04:55.461Z,11.4
2023-06-09T01:09:55.166Z,11.4
2023-06-09T01:14:54.967Z,11.4
2023-06-09T01:19:54.682Z,11.3
2023-06-09T01:24:54.379Z,11.3
2023-06-09T01:29:54.038Z,11.2
2023-06-09T01:34:53.782Z,11.1
2023-06-09T01:39:53.416Z,11.1
2023-06-09T01:49:52.842Z,10.9
2023-06-09T01:54:52.525Z,10.9
2023-06-09T01:59:52.199Z,10.9
2023-06-09T02:09:51.469Z,10.8
2023-06-09T02:14:51.089Z,10.8
2023-06-09T02:19:50.638Z,10.7
2023-06-09T02:24:50.313Z,10.8
2023-06-09T02:29:49.890Z,10.7
2023-06-09T02:39:49.152Z,10.7
2023-06-09T02:44:48.825Z,10.6
2023-06-09T02:49:48.472Z,10.6
2023-06-09T02:54:48.202Z,10.6
2023-06-09T02:59:47.757Z,10.6
2023-06-09T03:04:47.457Z,10.6
2023-06-09T03:09:47.074Z,10.6
2023-06-09T03:14:46.696Z,10.5
2023-06-09T03:19:46.298Z,10.6
2023-06-09T03:24:46.115Z,10.6
2023-06-09T03:29:45.585Z,10.5
2023-06-09T03:34:45.244Z,10.5
2023-06-09T03:39:44.896Z,10.5
2023-06-09T03:44:44.593Z,10.5
2023-06-09T03:54:43.865Z,10.4
2023-06-09T03:59:43.497Z,10.4
2023-06-09T04:04:43.274Z,10.4
2023-06-09T04:09:42.771Z,10.5
2023-06-09T04:14:42.475Z,10.5
2023-06-09T04:19:42.102Z,10.5
2023-06-09T04:24:41.826Z,10.6
2023-06-09T04:29:41.400Z,10.6
2023-06-09T04:34:41.064Z,10.6
2023-06-09T04:39:40.658Z,10.7
2023-06-09T04:44:41.997Z,10.8
2023-06-09T04:49:39.979Z,10.8
2023-06-09T04:54:39.650Z,10.8
2023-06-09T04:59:39.280Z,10.9
2023-06-09T05:04:41.587Z,10.9
2023-06-09T05:14:40.324Z,11.0
2023-06-09T05:19:37.907Z,11.0
2023-06-09T05:24:37.611Z,11.1
2023-06-09T05:29:37.210Z,11.1
2023-06-09T05:39:36.864Z,11.4
2023-06-09T05:49:35.930Z,11.4
2023-06-09T05:54:35.594Z,11.5
2023-06-09T05:59:35.258Z,11.6
2023-06-09T06:04:35.088Z,11.7
2023-06-09T06:09:34.818Z,11.8
2023-06-09T06:14:35.039Z,11.9
2023-06-09T06:19:34.626Z,12.1
2023-06-09T06:24:33.827Z,12.1
2023-06-09T06:29:33.475Z,12.2
2023-06-09T06:34:33.214Z,12.4
2023-06-09T06:39:32.825Z,12.6
2023-06-09T06:44:35.010Z,12.8
2023-06-09T06:49:32.265Z,12.8
2023-06-09T06:54:32.048Z,12.7
2023-06-09T06:59:31.689Z,12.7
2023-06-09T07:04:31.649Z,12.8
2023-06-09T07:09:31.180Z,13.1
2023-06-09T07:14:30.897Z,13.5
2023-06-09T07:19:30.621Z,13.8
2023-06-09T07:24:30.451Z,13.9
2023-06-09T07:34:29.976Z,13.9
2023-06-09T07:39:29.637Z,14.3
2023-06-09T07:44:29.447Z,14.6
2023-06-09T07:49:29.268Z,14.3
2023-06-09T07:54:28.954Z,14.5
2023-06-09T07:59:28.760Z,14.5
2023-06-09T08:04:28.668Z,14.8
2023-06-09T08:09:28.326Z,15.1
2023-06-09T08:14:28.230Z,15.3
2023-06-09T08:27:09.632Z,15.8
2023-06-09T08:27:10.720Z,15.8
2023-06-09T08:29:27.766Z,15.9
2023-06-09T08:34:27.663Z,16.2
2023-06-09T08:39:27.546Z,16.5
2023-06-09T08:44:27.461Z,16.6
2023-06-09T08:49:27.409Z,16.6
2023-06-09T08:59:27.300Z,17.1
2023-06-09T09:04:27.226Z,17.4
2023-06-09T09:09:30.187Z,17.1
2023-06-09T09:14:27.209Z,17.5
2023-06-09T09:19:27.138Z,17.9
2023-06-09T09:24:27.192Z,18.1
2023-06-09T09:29:27.118Z,18.4
2023-06-09T09:34:27.218Z,18.8
2023-06-09T09:39:27.192Z,18.8
2023-06-09T09:44:27.270Z,18.8
2023-06-09T09:49:27.351Z,19.2
2023-06-09T09:59:27.538Z,19.8
2023-06-09T10:09:27.653Z,19.7
2023-06-09T10:14:27.759Z,19.5
2023-06-09T10:19:27.869Z,19.8
2023-06-09T10:24:28.000Z,20.4
2023-06-09T10:29:28.277Z,21.0
2023-06-09T10:34:28.375Z,20.9
2023-06-09T10:39:28.525Z,20.9
2023-06-09T10:44:28.745Z,21.3
2023-06-09T10:49:28.967Z,21.2
2023-06-09T10:54:29.178Z,21.6
2023-06-09T11:04:29.620Z,21.6
2023-06-09T11:09:29.810Z,22.2
2023-06-09T11:14:31.573Z,22.5
2023-06-09T11:19:30.240Z,22.9
2023-06-09T11:24:30.560Z,23.4
2023-06-09T11:29:30.842Z,23.2
2023-06-09T11:34:31.150Z,23.9
2023-06-09T11:39:31.440Z,23.9
2023-06-09T11:44:31.805Z,24.2
2023-06-09T11:49:32.071Z,24.2
2023-06-09T11:54:32.425Z,24.7
2023-06-09T11:59:45.432Z,24.9
2023-06-09T12:04:33.123Z,25.5
2023-06-09T12:09:33.490Z,25.9
2023-06-09T12:14:33.822Z,25.9
2023-06-09T12:19:34.253Z,26.8
2023-06-09T12:24:36.892Z,27.1
2023-06-09T12:29:35.017Z,27.5
2023-06-09T12:34:35.583Z,27.6
2023-06-09T12:39:36.072Z,28.1
2023-06-09T12:44:36.724Z,27.8
2023-06-09T12:49:36.950Z,28.2
2023-06-09T12:54:37.467Z,29.1
2023-06-09T12:59:37.935Z,28.0
2023-06-09T13:04:38.562Z,29.6
2023-06-09T13:09:38.995Z,29.6
2023-06-09T13:14:39.542Z,29.3
2023-06-09T13:19:40.073Z,29.1
2023-06-09T13:24:40.612Z,29.2
2023-06-09T13:29:41.144Z,29.7
2023-06-09T13:34:41.762Z,30.2
2023-06-09T13:39:42.376Z,29.9
2023-06-09T13:44:43.004Z,29.2
2023-06-09T13:49:43.804Z,29.8
2023-06-09T13:54:44.249Z,28.6
2023-06-09T13:59:44.863Z,28.8
2023-06-09T14:09:46.132Z,28.8
2023-06-09T14:19:47.486Z,28.4
2023-06-09T14:24:48.102Z,28.7
2023-06-09T14:39:50.082Z,28.8
2023-06-09T14:44:50.833Z,28.2
2023-06-09T14:49:51.518Z,28.3
2023-06-09T14:54:52.237Z,27.2
2023-06-09T15:09:54.271Z,26.6
2023-06-09T15:15:01.098Z,26.8
2023-06-09T15:19:55.718Z,26.4
2023-06-09T15:24:56.359Z,26.1
2023-06-09T15:29:56.979Z,26.0
2023-06-09T15:34:57.612Z,25.9
2023-06-09T15:39:58.222Z,25.9
2023-06-09T15:44:58.807Z,25.7
2023-06-09T15:49:59.394Z,25.6
2023-06-09T16:00:00.635Z,25.6
2023-06-09T16:05:01.155Z,25.4
2023-06-09T16:10:01.742Z,25.3
2023-06-09T16:15:02.293Z,25.4
2023-06-09T16:20:02.826Z,25.4
2023-06-09T16:25:03.349Z,25.4
2023-06-09T16:30:03.920Z,25.2
2023-06-09T16:45:05.524Z,25.2
2023-06-09T16:50:06.043Z,25.1
2023-06-09T16:55:06.819Z,25.1
2023-06-09T17:00:07.065Z,25.1
2023-06-09T17:05:08.169Z,25.0
2023-06-09T17:10:08.201Z,24.9
2023-06-09T17:15:09.069Z,24.9
2023-06-09T17:25:10.103Z,24.8
2023-06-09T17:30:14.967Z,24.8
2023-06-09T17:35:11.005Z,24.8
2023-06-09T17:40:11.397Z,24.6
2023-06-09T17:45:12.468Z,24.7
2023-06-09T17:50:12.368Z,24.7
2023-06-09T17:55:13.172Z,24.6
2023-06-09T18:00:13.341Z,24.5
2023-06-09T18:05:13.871Z,24.4
2023-06-09T18:15:16.882Z,23.9
2023-06-09T18:20:15.326Z,23.8
2023-06-09T18:25:15.854Z,23.6
2023-06-09T18:30:16.312Z,23.4
2023-06-09T18:35:16.768Z,23.2
2023-06-09T18:40:17.207Z,22.9
2023-06-09T18:45:17.670Z,22.8
2023-06-09T18:50:18.105Z,22.6
2023-06-09T18:55:18.587Z,22.4
2023-06-09T19:00:18.926Z,22.2
2023-06-09T19:05:19.311Z,22.1
2023-06-09T19:10:19.657Z,21.9
2023-06-09T19:20:20.385Z,21.6
2023-06-09T19:25:20.700Z,21.5
2023-06-09T19:30:20.975Z,21.4
2023-06-09T19:35:21.294Z,21.2
2023-06-09T19:40:21.591Z,20.9
2023-06-09T19:45:21.929Z,20.8
2023-06-09T19:50:22.155Z,20.6
2023-06-09T19:55:22.410Z,20.4
2023-06-09T20:00:22.648Z,20.3
2023-06-09T20:05:22.879Z,20.1
2023-06-09T20:10:23.967Z,19.9
2023-06-09T20:15:23.302Z,19.8
2023-06-09T20:20:23.516Z,19.6
2023-06-09T20:25:23.738Z,19.4
2023-06-09T20:30:23.889Z,19.3
2023-06-09T20:40:24.239Z,18.9
2023-06-09T20:45:24.440Z,18.8
2023-06-09T20:50:24.588Z,18.8
2023-06-09T20:55:24.777Z,18.6
2023-06-09T21:00:24.881Z,18.4
2023-06-09T21:05:25.042Z,18.3
2023-06-09T21:10:25.175Z,18.2
2023-06-09T21:15:25.267Z,18.1
2023-06-09T21:20:25.345Z,17.9
2023-06-09T21:25:25.474Z,17.8
2023-06-09T21:30:25.582Z,17.6
2023-06-09T21:35:25.686Z,17.5
2023-06-09T21:40:25.794Z,17.4
2023-06-09T21:45:25.855Z,17.3
2023-06-09T21:50:25.906Z,17.2
2023-06-09T21:55:25.997Z,17.0
2023-06-09T22:00:26.030Z,16.9
2023-06-09T22:05:26.047Z,16.8
2023-06-09T22:10:26.115Z,16.7
2023-06-09T22:15:26.159Z,16.5
2023-06-09T22:20:26.201Z,16.3
2023-06-09T22:25:26.261Z,16.3
2023-06-09T22:30:26.245Z,16.2
2023-06-09T22:35:26.262Z,16.1
2023-06-09T22:40:26.312Z,15.9
2023-06-09T22:45:26.307Z,15.8
2023-06-09T22:50:26.277Z,15.8
2023-06-09T22:55:26.339Z,15.6
2023-06-09T23:00:26.236Z,15.4
2023-06-09T23:05:26.237Z,15.4
2023-06-09T23:10:26.120Z,15.2
2023-06-09T23:15:26.108Z,15.2
2023-06-09T23:20:26.011Z,14.9
2023-06-09T23:25:25.910Z,14.9
2023-06-09T23:30:25.863Z,14.8
2023-06-09T23:35:25.802Z,14.6
2023-06-09T23:40:25.716Z,14.6
2023-06-09T23:45:25.634Z,14.5
2023-06-09T23:50:25.544Z,14.4
2023-06-09T23:55:25.492Z,14.4
